CheckWX is a tool to help pilots better visualize weather data.  It is not intended as a substitute for an official pre-flight weather briefing.

23:45:35 UTC

LOWG METAR
Graz Airport
Graz, Austria
Current

26 mins ago

LOWG 192320Z AUTO VRB01KT 9999 FEW240 17/14 Q1017
Observed
Jul-19 @ 23:20 UTC
Wind
  • Variable at 1 KTS
Visibility
10,000+ meters
Flight Rules
VFR
Cloud Levels
  • Few at 24,000' AGL
Temperature
17°C / 63°F
Dewpoint
14°C / 57°F
Humidity
83%
Altimeter
30.03" Hg
Pressure
1016.92 hPa
Previous

56 mins ago

LOWG 192250Z AUTO 14002KT 9999 FEW110 17/14 Q1017
Observed
Jul-19 @ 22:50 UTC
Wind
  • 140° at 2 KTS
Visibility
10,000+ meters
Flight Rules
VFR
Cloud Levels
  • Few at 11,000' AGL
Temperature
17°C / 63°F
Dewpoint
14°C / 57°F
Humidity
83%
Altimeter
30.03" Hg
Pressure
1016.92 hPa
Previous

1 hour ago

LOWG 192220Z AUTO VRB01KT 9999 NSC 18/14 Q1018
Observed
Jul-19 @ 22:20 UTC
Wind
  • Variable at 1 KTS
Visibility
10,000+ meters
Flight Rules
VFR
Cloud Levels
  • Clear skies
Temperature
18°C / 64°F
Dewpoint
14°C / 57°F
Humidity
78%
Altimeter
30.06" Hg
Pressure
1017.92 hPa